sensor_id;sensor_type;location;lat;lon;timestamp;temperature;humidity
53800;DHT22;39708;53.210;6.948;2022-09-01T00:01:26;13.40;99.90
53800;DHT22;39708;53.210;6.948;2022-09-01T00:03:53;13.50;99.90
53800;DHT22;39708;53.210;6.948;2022-09-01T00:06:21;13.50;99.90
53800;DHT22;39708;53.210;6.948;2022-09-01T00:08:55;13.50;99.90
53800;DHT22;39708;53.210;6.948;2022-09-01T00:11:22;13.50;99.90
53800;DHT22;39708;53.210;6.948;2022-09-01T00:13:49;13.50;99.90
53800;DHT22;39708;53.210;6.948;2022-09-01T00:16:16;13.50;99.90
53800;DHT22;39708;53.210;6.948;2022-09-01T00:18:44;13.50;99.90
53800;DHT22;39708;53.210;6.948;2022-09-01T00:21:15;13.40;99.90
53800;DHT22;39708;53.210;6.948;2022-09-01T00:23:41;13.30;99.90
53800;DHT22;39708;53.210;6.948;2022-09-01T00:26:07;13.40;99.90
53800;DHT22;39708;53.210;6.948;2022-09-01T00:28:34;13.20;99.90
53800;DHT22;39708;53.210;6.948;2022-09-01T00:31:00;13.20;99.90
53800;DHT22;39708;53.210;6.948;2022-09-01T00:33:26;13.10;99.90
53800;DHT22;39708;53.210;6.948;2022-09-01T00:35:52;13.20;99.90
53800;DHT22;39708;53.210;6.948;2022-09-01T00:38:18;13.10;99.90
53800;DHT22;39708;53.210;6.948;2022-09-01T00:40:43;13.00;99.90
53800;DHT22;39708;53.210;6.948;2022-09-01T00:43:39;12.90;99.90
53800;DHT22;39708;53.210;6.948;2022-09-01T00:46:11;12.80;99.90
53800;DHT22;39708;53.210;6.948;2022-09-01T00:48:38;12.80;99.90
53800;DHT22;39708;53.210;6.948;2022-09-01T00:51:04;12.90;99.90
53800;DHT22;39708;53.210;6.948;2022-09-01T00:53:31;12.80;99.90
53800;DHT22;39708;53.210;6.948;2022-09-01T00:55:58;12.90;99.90
53800;DHT22;39708;53.210;6.948;2022-09-01T00:58:24;13.00;99.90
53800;DHT22;39708;53.210;6.948;2022-09-01T01:00:51;13.30;99.90
53800;DHT22;39708;53.210;6.948;2022-09-01T01:03:17;13.10;99.90
53800;DHT22;39708;53.210;6.948;2022-09-01T01:05:50;13.10;99.90
53800;DHT22;39708;53.210;6.948;2022-09-01T01:08:21;13.10;99.90
53800;DHT22;39708;53.210;6.948;2022-09-01T01:10:55;13.20;99.90
53800;DHT22;39708;53.210;6.948;2022-09-01T01:13:21;13.20;99.90
53800;DHT22;39708;53.210;6.948;2022-09-01T01:15:50;13.30;99.90
53800;DHT22;39708;53.210;6.948;2022-09-01T01:18:16;13.20;99.90
53800;DHT22;39708;53.210;6.948;2022-09-01T01:20:42;13.60;99.90
53800;DHT22;39708;53.210;6.948;2022-09-01T01:23:31;13.10;99.90
53800;DHT22;39708;53.210;6.948;2022-09-01T01:26:03;13.10;99.90
53800;DHT22;39708;53.210;6.948;2022-09-01T01:28:35;13.10;99.90
53800;DHT22;39708;53.210;6.948;2022-09-01T01:33:36;13.30;99.90
53800;DHT22;39708;53.210;6.948;2022-09-01T01:36:05;13.30;99.90
53800;DHT22;39708;53.210;6.948;2022-09-01T01:38:32;13.80;99.90
53800;DHT22;39708;53.210;6.948;2022-09-01T01:41:00;13.40;99.90
53800;DHT22;39708;53.210;6.948;2022-09-01T01:43:27;13.50;99.90
53800;DHT22;39708;53.210;6.948;2022-09-01T01:45:55;13.50;99.90
53800;DHT22;39708;53.210;6.948;2022-09-01T01:48:28;13.50;99.90
53800;DHT22;39708;53.210;6.948;2022-09-01T01:50:54;13.80;99.90
53800;DHT22;39708;53.210;6.948;2022-09-01T01:53:22;13.70;99.90
53800;DHT22;39708;53.210;6.948;2022-09-01T01:55:49;13.80;99.90
53800;DHT22;39708;53.210;6.948;2022-09-01T01:58:16;13.60;99.90
53800;DHT22;39708;53.210;6.948;2022-09-01T02:00:45;13.70;99.90
53800;DHT22;39708;53.210;6.948;2022-09-01T02:03:13;13.40;99.90
53800;DHT22;39708;53.210;6.948;2022-09-01T02:05:44;13.40;99.90
53800;DHT22;39708;53.210;6.948;2022-09-01T02:08:10;13.40;99.90
53800;DHT22;39708;53.210;6.948;2022-09-01T02:10:41;13.70;99.90
53800;DHT22;39708;53.210;6.948;2022-09-01T02:13:09;13.30;99.90
53800;DHT22;39708;53.210;6.948;2022-09-01T02:15:42;14.30;99.90
53800;DHT22;39708;53.210;6.948;2022-09-01T02:18:35;13.70;99.90
53800;DHT22;39708;53.210;6.948;2022-09-01T02:21:04;13.50;99.90
53800;DHT22;39708;53.210;6.948;2022-09-01T02:23:35;13.50;99.90
53800;DHT22;39708;53.210;6.948;2022-09-01T02:26:01;14.00;99.90
53800;DHT22;39708;53.210;6.948;2022-09-01T02:28:28;14.10;99.90
53800;DHT22;39708;53.210;6.948;2022-09-01T02:30:56;13.40;99.90
53800;DHT22;39708;53.210;6.948;2022-09-01T02:33:25;13.50;99.90
53800;DHT22;39708;53.210;6.948;2022-09-01T02:35:56;13.30;99.90
53800;DHT22;39708;53.210;6.948;2022-09-01T02:38:23;13.60;99.90
53800;DHT22;39708;53.210;6.948;2022-09-01T02:40:52;13.20;99.90
53800;DHT22;39708;53.210;6.948;2022-09-01T02:43:19;13.30;99.90
53800;DHT22;39708;53.210;6.948;2022-09-01T02:45:50;13.20;99.90
53800;DHT22;39708;53.210;6.948;2022-09-01T02:48:18;13.20;99.90
53800;DHT22;39708;53.210;6.948;2022-09-01T02:50:47;13.20;99.90
53800;DHT22;39708;53.210;6.948;2022-09-01T02:53:13;13.00;99.90
53800;DHT22;39708;53.210;6.948;2022-09-01T02:55:40;12.90;99.90
53800;DHT22;39708;53.210;6.948;2022-09-01T02:58:06;12.80;99.90
53800;DHT22;39708;53.210;6.948;2022-09-01T03:00:36;12.80;99.90
53800;DHT22;39708;53.210;6.948;2022-09-01T03:03:05;12.80;99.90
53800;DHT22;39708;53.210;6.948;2022-09-01T03:05:32;12.70;99.90
53800;DHT22;39708;53.210;6.948;2022-09-01T03:08:04;12.70;99.90
53800;DHT22;39708;53.210;6.948;2022-09-01T03:10:36;12.70;99.90
53800;DHT22;39708;53.210;6.948;2022-09-01T03:13:04;12.60;99.90
53800;DHT22;39708;53.210;6.948;2022-09-01T03:15:31;12.50;99.90
53800;DHT22;39708;53.210;6.948;2022-09-01T03:17:58;13.00;99.90
53800;DHT22;39708;53.210;6.948;2022-09-01T03:20:26;12.60;99.90
53800;DHT22;39708;53.210;6.948;2022-09-01T03:22:51;12.50;99.90
53800;DHT22;39708;53.210;6.948;2022-09-01T03:25:17;12.50;99.90
53800;DHT22;39708;53.210;6.948;2022-09-01T03:27:44;12.60;99.90
53800;DHT22;39708;53.210;6.948;2022-09-01T03:30:10;12.70;99.90
53800;DHT22;39708;53.210;6.948;2022-09-01T03:32:36;12.70;99.90
53800;DHT22;39708;53.210;6.948;2022-09-01T03:35:02;12.80;99.90
53800;DHT22;39708;53.210;6.948;2022-09-01T03:37:28;12.60;99.90
53800;DHT22;39708;53.210;6.948;2022-09-01T03:39:54;12.60;99.90
53800;DHT22;39708;53.210;6.948;2022-09-01T03:42:22;12.50;99.90
53800;DHT22;39708;53.210;6.948;2022-09-01T03:44:50;12.40;99.90
53800;DHT22;39708;53.210;6.948;2022-09-01T03:47:18;12.50;99.90
53800;DHT22;39708;53.210;6.948;2022-09-01T03:49:46;12.50;99.90
53800;DHT22;39708;53.210;6.948;2022-09-01T03:52:14;12.50;99.90
53800;DHT22;39708;53.210;6.948;2022-09-01T03:54:40;12.50;99.90
53800;DHT22;39708;53.210;6.948;2022-09-01T03:57:06;12.50;99.90
53800;DHT22;39708;53.210;6.948;2022-09-01T03:59:34;12.60;99.90
53800;DHT22;39708;53.210;6.948;2022-09-01T04:02:00;12.50;99.90
53800;DHT22;39708;53.210;6.948;2022-09-01T04:04:28;12.50;99.90
53800;DHT22;39708;53.210;6.948;2022-09-01T04:06:57;12.30;99.90
53800;DHT22;39708;53.210;6.948;2022-09-01T04:09:24;12.30;99.90
53800;DHT22;39708;53.210;6.948;2022-09-01T04:11:50;12.40;99.90
53800;DHT22;39708;53.210;6.948;2022-09-01T04:14:17;12.40;99.90
53800;DHT22;39708;53.210;6.948;2022-09-01T04:16:43;12.30;99.90
53800;DHT22;39708;53.210;6.948;2022-09-01T04:19:28;12.70;99.90
53800;DHT22;39708;53.210;6.948;2022-09-01T04:21:59;12.70;99.90
53800;DHT22;39708;53.210;6.948;2022-09-01T04:24:26;12.50;99.90
53800;DHT22;39708;53.210;6.948;2022-09-01T04:26:54;12.60;99.90
53800;DHT22;39708;53.210;6.948;2022-09-01T04:29:21;12.50;99.90
53800;DHT22;39708;53.210;6.948;2022-09-01T04:31:58;12.60;99.90
53800;DHT22;39708;53.210;6.948;2022-09-01T04:34:29;12.80;99.90
53800;DHT22;39708;53.210;6.948;2022-09-01T04:37:08;12.80;99.90
53800;DHT22;39708;53.210;6.948;2022-09-01T04:39:34;12.70;99.90
53800;DHT22;39708;53.210;6.948;2022-09-01T04:42:00;12.70;99.90
53800;DHT22;39708;53.210;6.948;2022-09-01T04:44:30;12.70;99.90
53800;DHT22;39708;53.210;6.948;2022-09-01T04:46:56;12.70;99.90
53800;DHT22;39708;53.210;6.948;2022-09-01T04:49:22;13.10;99.90
53800;DHT22;39708;53.210;6.948;2022-09-01T04:51:52;12.80;99.90
53800;DHT22;39708;53.210;6.948;2022-09-01T04:54:19;12.90;99.90
53800;DHT22;39708;53.210;6.948;2022-09-01T04:56:47;12.90;99.90
53800;DHT22;39708;53.210;6.948;2022-09-01T04:59:18;12.90;99.90
53800;DHT22;39708;53.210;6.948;2022-09-01T05:01:45;12.90;99.90
53800;DHT22;39708;53.210;6.948;2022-09-01T05:04:14;12.90;99.90
53800;DHT22;39708;53.210;6.948;2022-09-01T05:06:47;12.90;99.90
53800;DHT22;39708;53.210;6.948;2022-09-01T05:09:15;12.90;99.90
53800;DHT22;39708;53.210;6.948;2022-09-01T05:11:42;12.90;99.90
53800;DHT22;39708;53.210;6.948;2022-09-01T05:14:10;12.80;99.90
53800;DHT22;39708;53.210;6.948;2022-09-01T05:16:37;13.20;99.90
53800;DHT22;39708;53.210;6.948;2022-09-01T05:19:06;13.30;99.90
53800;DHT22;39708;53.210;6.948;2022-09-01T05:21:40;12.90;99.90
53800;DHT22;39708;53.210;6.948;2022-09-01T05:24:08;12.90;99.90
53800;DHT22;39708;53.210;6.948;2022-09-01T05:26:35;13.10;99.90
53800;DHT22;39708;53.210;6.948;2022-09-01T05:29:06;12.80;99.90
53800;DHT22;39708;53.210;6.948;2022-09-01T05:31:39;13.00;99.90
53800;DHT22;39708;53.210;6.948;2022-09-01T05:34:05;12.80;99.90
53800;DHT22;39708;53.210;6.948;2022-09-01T05:36:35;12.90;99.90
53800;DHT22;39708;53.210;6.948;2022-09-01T05:39:05;13.00;99.90
53800;DHT22;39708;53.210;6.948;2022-09-01T05:41:31;13.40;99.90
53800;DHT22;39708;53.210;6.948;2022-09-01T05:43:58;13.10;99.90
53800;DHT22;39708;53.210;6.948;2022-09-01T05:46:26;13.10;99.90
53800;DHT22;39708;53.210;6.948;2022-09-01T05:48:54;13.20;99.90
53800;DHT22;39708;53.210;6.948;2022-09-01T05:51:23;13.20;99.90
53800;DHT22;39708;53.210;6.948;2022-09-01T05:53:51;13.30;99.90
53800;DHT22;39708;53.210;6.948;2022-09-01T05:56:19;13.30;99.90
53800;DHT22;39708;53.210;6.948;2022-09-01T05:58:46;13.50;99.90
53800;DHT22;39708;53.210;6.948;2022-09-01T06:01:31;13.30;99.90
53800;DHT22;39708;53.210;6.948;2022-09-01T06:03:59;13.40;99.90
53800;DHT22;39708;53.210;6.948;2022-09-01T06:06:33;13.60;99.90
53800;DHT22;39708;53.210;6.948;2022-09-01T06:09:03;13.80;99.90
53800;DHT22;39708;53.210;6.948;2022-09-01T06:11:29;14.00;99.90
53800;DHT22;39708;53.210;6.948;2022-09-01T06:14:01;14.00;99.90
53800;DHT22;39708;53.210;6.948;2022-09-01T06:16:28;14.10;99.90
53800;DHT22;39708;53.210;6.948;2022-09-01T06:18:55;14.50;99.90
53800;DHT22;39708;53.210;6.948;2022-09-01T06:21:23;14.50;99.90
53800;DHT22;39708;53.210;6.948;2022-09-01T06:23:50;14.40;99.90
53800;DHT22;39708;53.210;6.948;2022-09-01T06:26:28;14.40;99.90
53800;DHT22;39708;53.210;6.948;2022-09-01T06:29:00;14.60;99.90
53800;DHT22;39708;53.210;6.948;2022-09-01T06:31:30;14.70;99.90
53800;DHT22;39708;53.210;6.948;2022-09-01T06:34:00;14.80;99.90
53800;DHT22;39708;53.210;6.948;2022-09-01T06:36:27;14.90;99.90
53800;DHT22;39708;53.210;6.948;2022-09-01T06:38:54;15.30;99.90
53800;DHT22;39708;53.210;6.948;2022-09-01T06:41:21;15.20;99.90
53800;DHT22;39708;53.210;6.948;2022-09-01T06:43:49;15.20;99.90
53800;DHT22;39708;53.210;6.948;2022-09-01T06:46:17;15.20;99.90
53800;DHT22;39708;53.210;6.948;2022-09-01T06:48:45;15.30;99.90
53800;DHT22;39708;53.210;6.948;2022-09-01T06:51:19;15.60;99.90
53800;DHT22;39708;53.210;6.948;2022-09-01T06:53:47;15.40;99.90
53800;DHT22;39708;53.210;6.948;2022-09-01T06:56:15;15.70;99.90
53800;DHT22;39708;53.210;6.948;2022-09-01T06:58:44;15.60;99.90
53800;DHT22;39708;53.210;6.948;2022-09-01T07:01:14;15.90;99.90
53800;DHT22;39708;53.210;6.948;2022-09-01T07:03:44;15.70;99.90
53800;DHT22;39708;53.210;6.948;2022-09-01T07:06:10;15.80;99.90
53800;DHT22;39708;53.210;6.948;2022-09-01T07:08:37;15.90;99.90
53800;DHT22;39708;53.210;6.948;2022-09-01T07:11:08;15.80;99.90
53800;DHT22;39708;53.210;6.948;2022-09-01T07:13:41;16.30;99.90
53800;DHT22;39708;53.210;6.948;2022-09-01T07:16:15;15.90;99.90
53800;DHT22;39708;53.210;6.948;2022-09-01T07:18:44;15.90;99.90
53800;DHT22;39708;53.210;6.948;2022-09-01T07:21:09;15.90;99.90
53800;DHT22;39708;53.210;6.948;2022-09-01T07:23:35;16.00;99.90
53800;DHT22;39708;53.210;6.948;2022-09-01T07:26:05;16.10;99.90
53800;DHT22;39708;53.210;6.948;2022-09-01T07:28:32;16.10;99.90
53800;DHT22;39708;53.210;6.948;2022-09-01T07:30:58;16.20;99.90
53800;DHT22;39708;53.210;6.948;2022-09-01T07:33:25;16.20;99.90
53800;DHT22;39708;53.210;6.948;2022-09-01T07:35:52;16.40;99.90
53800;DHT22;39708;53.210;6.948;2022-09-01T07:38:20;16.90;99.90
53800;DHT22;39708;53.210;6.948;2022-09-01T07:40:46;16.70;99.90
53800;DHT22;39708;53.210;6.948;2022-09-01T07:43:17;16.80;99.90
53800;DHT22;39708;53.210;6.948;2022-09-01T07:45:47;16.90;99.90
53800;DHT22;39708;53.210;6.948;2022-09-01T07:48:16;16.90;99.90
53800;DHT22;39708;53.210;6.948;2022-09-01T07:50:45;16.80;99.90
53800;DHT22;39708;53.210;6.948;2022-09-01T07:53:27;17.10;99.90
53800;DHT22;39708;53.210;6.948;2022-09-01T07:55:57;16.90;99.90
53800;DHT22;39708;53.210;6.948;2022-09-01T07:58:25;16.90;99.90
53800;DHT22;39708;53.210;6.948;2022-09-01T08:00:52;17.00;99.90
53800;DHT22;39708;53.210;6.948;2022-09-01T08:03:23;17.20;99.90
53800;DHT22;39708;53.210;6.948;2022-09-01T08:05:50;17.30;99.90
53800;DHT22;39708;53.210;6.948;2022-09-01T08:08:20;17.40;99.90
53800;DHT22;39708;53.210;6.948;2022-09-01T08:10:46;17.50;99.90
53800;DHT22;39708;53.210;6.948;2022-09-01T08:13:14;17.60;99.90
53800;DHT22;39708;53.210;6.948;2022-09-01T08:15:40;17.60;99.90
53800;DHT22;39708;53.210;6.948;2022-09-01T08:18:06;17.70;99.90
53800;DHT22;39708;53.210;6.948;2022-09-01T08:20:32;17.90;99.90
53800;DHT22;39708;53.210;6.948;2022-09-01T08:23:03;17.90;99.90
53800;DHT22;39708;53.210;6.948;2022-09-01T08:25:31;17.90;99.90
53800;DHT22;39708;53.210;6.948;2022-09-01T08:27:57;17.90;99.90
53800;DHT22;39708;53.210;6.948;2022-09-01T08:30:23;17.90;99.90
53800;DHT22;39708;53.210;6.948;2022-09-01T08:32:48;18.00;99.90
53800;DHT22;39708;53.210;6.948;2022-09-01T08:35:14;18.00;99.90
53800;DHT22;39708;53.210;6.948;2022-09-01T08:37:41;18.00;99.90
53800;DHT22;39708;53.210;6.948;2022-09-01T08:40:09;18.00;99.90
53800;DHT22;39708;53.210;6.948;2022-09-01T08:42:49;18.00;99.90
53800;DHT22;39708;53.210;6.948;2022-09-01T08:45:51;18.20;99.90
53800;DHT22;39708;53.210;6.948;2022-09-01T08:48:35;18.20;99.90
53800;DHT22;39708;53.210;6.948;2022-09-01T08:51:38;18.30;99.90
53800;DHT22;39708;53.210;6.948;2022-09-01T08:54:28;18.40;99.90
53800;DHT22;39708;53.210;6.948;2022-09-01T08:57:00;18.50;99.90
53800;DHT22;39708;53.210;6.948;2022-09-01T08:59:27;18.50;99.90
53800;DHT22;39708;53.210;6.948;2022-09-01T09:01:57;18.60;99.90
53800;DHT22;39708;53.210;6.948;2022-09-01T09:07:44;18.90;99.90
53800;DHT22;39708;53.210;6.948;2022-09-01T09:10:25;19.00;99.90
53800;DHT22;39708;53.210;6.948;2022-09-01T09:13:20;19.00;99.90
53800;DHT22;39708;53.210;6.948;2022-09-01T09:15:58;19.20;99.90
53800;DHT22;39708;53.210;6.948;2022-09-01T09:18:48;19.30;99.90
53800;DHT22;39708;53.210;6.948;2022-09-01T09:21:19;19.40;99.90
53800;DHT22;39708;53.210;6.948;2022-09-01T09:23:52;19.50;99.90
53800;DHT22;39708;53.210;6.948;2022-09-01T09:26:19;19.60;99.90
53800;DHT22;39708;53.210;6.948;2022-09-01T09:28:47;19.60;99.90
53800;DHT22;39708;53.210;6.948;2022-09-01T09:31:37;19.90;99.90
53800;DHT22;39708;53.210;6.948;2022-09-01T09:34:38;20.40;99.90
53800;DHT22;39708;53.210;6.948;2022-09-01T09:40:02;21.30;99.90
53800;DHT22;39708;53.210;6.948;2022-09-01T09:42:28;21.50;99.90
53800;DHT22;39708;53.210;6.948;2022-09-01T09:44:55;21.60;99.90
53800;DHT22;39708;53.210;6.948;2022-09-01T09:47:40;21.90;99.90
53800;DHT22;39708;53.210;6.948;2022-09-01T09:50:15;21.80;99.90
53800;DHT22;39708;53.210;6.948;2022-09-01T09:52:42;22.00;99.90
53800;DHT22;39708;53.210;6.948;2022-09-01T09:55:50;21.90;99.90
53800;DHT22;39708;53.210;6.948;2022-09-01T09:58:20;21.90;99.90
53800;DHT22;39708;53.210;6.948;2022-09-01T10:04:01;22.00;99.90
53800;DHT22;39708;53.210;6.948;2022-09-01T10:06:42;22.10;99.90
53800;DHT22;39708;53.210;6.948;2022-09-01T10:11:56;22.10;99.90
53800;DHT22;39708;53.210;6.948;2022-09-01T10:14:37;22.10;99.90
53800;DHT22;39708;53.210;6.948;2022-09-01T10:17:13;22.00;99.90
53800;DHT22;39708;53.210;6.948;2022-09-01T10:19:48;22.10;99.90
53800;DHT22;39708;53.210;6.948;2022-09-01T10:22:16;22.10;99.90
53800;DHT22;39708;53.210;6.948;2022-09-01T10:24:43;22.10;99.90
53800;DHT22;39708;53.210;6.948;2022-09-01T10:29:55;22.30;99.90
53800;DHT22;39708;53.210;6.948;2022-09-01T10:32:26;22.10;99.90
53800;DHT22;39708;53.210;6.948;2022-09-01T10:34:54;22.00;99.90
53800;DHT22;39708;53.210;6.948;2022-09-01T10:37:21;21.90;99.90
53800;DHT22;39708;53.210;6.948;2022-09-01T10:42:46;22.20;99.90
53800;DHT22;39708;53.210;6.948;2022-09-01T10:45:37;22.40;99.90
53800;DHT22;39708;53.210;6.948;2022-09-01T10:50:46;22.50;98.20
53800;DHT22;39708;53.210;6.948;2022-09-01T11:04:14;21.90;99.80
53800;DHT22;39708;53.210;6.948;2022-09-01T11:09:28;22.20;96.90
53800;DHT22;39708;53.210;6.948;2022-09-01T11:14:31;22.20;97.40
53800;DHT22;39708;53.210;6.948;2022-09-01T11:17:22;22.10;98.00
53800;DHT22;39708;53.210;6.948;2022-09-01T11:20:25;22.20;97.10
53800;DHT22;39708;53.210;6.948;2022-09-01T11:22:58;22.20;97.40
53800;DHT22;39708;53.210;6.948;2022-09-01T11:28:00;22.50;97.90
53800;DHT22;39708;53.210;6.948;2022-09-01T11:30:41;22.60;98.00
53800;DHT22;39708;53.210;6.948;2022-09-01T11:34:02;22.60;97.70
53800;DHT22;39708;53.210;6.948;2022-09-01T11:36:34;22.50;97.50
53800;DHT22;39708;53.210;6.948;2022-09-01T11:42:10;22.70;96.50
53800;DHT22;39708;53.210;6.948;2022-09-01T11:47:41;22.70;96.30
53800;DHT22;39708;53.210;6.948;2022-09-01T11:50:35;22.90;96.90
53800;DHT22;39708;53.210;6.948;2022-09-01T11:53:13;22.80;96.40
53800;DHT22;39708;53.210;6.948;2022-09-01T11:55:45;22.70;96.50
53800;DHT22;39708;53.210;6.948;2022-09-01T11:58:33;22.60;96.10
53800;DHT22;39708;53.210;6.948;2022-09-01T12:03:40;22.70;95.90
53800;DHT22;39708;53.210;6.948;2022-09-01T12:06:09;22.60;95.60
53800;DHT22;39708;53.210;6.948;2022-09-01T12:08:40;22.50;95.30
53800;DHT22;39708;53.210;6.948;2022-09-01T12:11:12;22.70;95.50
53800;DHT22;39708;53.210;6.948;2022-09-01T12:14:17;22.40;95.40
53800;DHT22;39708;53.210;6.948;2022-09-01T12:16:41;22.40;95.90
53800;DHT22;39708;53.210;6.948;2022-09-01T12:19:07;22.70;95.90
53800;DHT22;39708;53.210;6.948;2022-09-01T12:21:36;22.70;96.00
53800;DHT22;39708;53.210;6.948;2022-09-01T12:24:36;22.90;96.20
53800;DHT22;39708;53.210;6.948;2022-09-01T12:27:02;22.80;94.90
53800;DHT22;39708;53.210;6.948;2022-09-01T12:29:29;22.80;96.30
53800;DHT22;39708;53.210;6.948;2022-09-01T12:31:56;23.00;95.60
53800;DHT22;39708;53.210;6.948;2022-09-01T12:34:35;22.90;94.90
53800;DHT22;39708;53.210;6.948;2022-09-01T12:39:43;22.70;95.40
53800;DHT22;39708;53.210;6.948;2022-09-01T12:42:22;22.90;95.10
53800;DHT22;39708;53.210;6.948;2022-09-01T12:45:08;22.90;94.50
53800;DHT22;39708;53.210;6.948;2022-09-01T12:52:48;22.90;94.00
53800;DHT22;39708;53.210;6.948;2022-09-01T12:55:26;23.00;93.80
53800;DHT22;39708;53.210;6.948;2022-09-01T12:57:58;23.00;94.10
53800;DHT22;39708;53.210;6.948;2022-09-01T13:00:34;23.20;93.80
53800;DHT22;39708;53.210;6.948;2022-09-01T13:03:14;23.40;93.20
53800;DHT22;39708;53.210;6.948;2022-09-01T13:05:45;23.50;94.30
53800;DHT22;39708;53.210;6.948;2022-09-01T13:08:15;23.70;94.00
53800;DHT22;39708;53.210;6.948;2022-09-01T13:10:50;23.90;92.80
53800;DHT22;39708;53.210;6.948;2022-09-01T13:13:16;23.90;93.70
53800;DHT22;39708;53.210;6.948;2022-09-01T13:15:45;23.50;92.50
53800;DHT22;39708;53.210;6.948;2022-09-01T13:18:19;23.50;93.40
53800;DHT22;39708;53.210;6.948;2022-09-01T13:20:46;23.40;93.20
53800;DHT22;39708;53.210;6.948;2022-09-01T13:23:12;23.40;93.30
53800;DHT22;39708;53.210;6.948;2022-09-01T13:25:38;23.20;92.80
53800;DHT22;39708;53.210;6.948;2022-09-01T13:28:09;23.20;93.00
53800;DHT22;39708;53.210;6.948;2022-09-01T13:30:36;23.20;93.00
53800;DHT22;39708;53.210;6.948;2022-09-01T13:33:02;23.30;92.30
53800;DHT22;39708;53.210;6.948;2022-09-01T13:35:28;23.10;91.70
53800;DHT22;39708;53.210;6.948;2022-09-01T13:37:54;23.00;92.50
53800;DHT22;39708;53.210;6.948;2022-09-01T13:40:22;23.20;92.50
53800;DHT22;39708;53.210;6.948;2022-09-01T13:42:51;23.30;92.50
53800;DHT22;39708;53.210;6.948;2022-09-01T13:45:20;23.40;92.20
53800;DHT22;39708;53.210;6.948;2022-09-01T13:47:47;23.50;91.80
53800;DHT22;39708;53.210;6.948;2022-09-01T13:50:18;23.40;91.50
53800;DHT22;39708;53.210;6.948;2022-09-01T13:52:47;23.40;91.50
53800;DHT22;39708;53.210;6.948;2022-09-01T13:55:16;23.40;91.40
53800;DHT22;39708;53.210;6.948;2022-09-01T13:57:42;23.60;91.60
53800;DHT22;39708;53.210;6.948;2022-09-01T14:00:11;23.60;91.30
53800;DHT22;39708;53.210;6.948;2022-09-01T14:02:43;23.70;91.90
53800;DHT22;39708;53.210;6.948;2022-09-01T14:05:44;23.60;91.00
53800;DHT22;39708;53.210;6.948;2022-09-01T14:08:11;23.20;91.20
53800;DHT22;39708;53.210;6.948;2022-09-01T14:10:40;23.10;91.40
53800;DHT22;39708;53.210;6.948;2022-09-01T14:13:08;23.20;91.40
53800;DHT22;39708;53.210;6.948;2022-09-01T14:15:34;23.40;91.10
53800;DHT22;39708;53.210;6.948;2022-09-01T14:18:00;23.50;90.40
53800;DHT22;39708;53.210;6.948;2022-09-01T14:20:33;23.50;90.10
53800;DHT22;39708;53.210;6.948;2022-09-01T14:23:01;23.70;90.10
53800;DHT22;39708;53.210;6.948;2022-09-01T14:25:28;23.70;88.80
53800;DHT22;39708;53.210;6.948;2022-09-01T14:27:54;23.30;88.40
53800;DHT22;39708;53.210;6.948;2022-09-01T14:30:24;22.90;90.20
53800;DHT22;39708;53.210;6.948;2022-09-01T14:32:50;22.60;90.80
53800;DHT22;39708;53.210;6.948;2022-09-01T14:35:19;22.50;91.70
53800;DHT22;39708;53.210;6.948;2022-09-01T14:37:45;22.70;91.00
53800;DHT22;39708;53.210;6.948;2022-09-01T14:40:13;22.90;90.50
53800;DHT22;39708;53.210;6.948;2022-09-01T14:42:44;23.20;89.00
53800;DHT22;39708;53.210;6.948;2022-09-01T14:45:20;23.40;88.20
53800;DHT22;39708;53.210;6.948;2022-09-01T14:47:48;23.40;88.30
53800;DHT22;39708;53.210;6.948;2022-09-01T14:50:15;23.50;90.10
53800;DHT22;39708;53.210;6.948;2022-09-01T14:52:41;23.40;87.80
53800;DHT22;39708;53.210;6.948;2022-09-01T14:55:07;23.20;88.50
53800;DHT22;39708;53.210;6.948;2022-09-01T14:57:33;23.10;89.90
53800;DHT22;39708;53.210;6.948;2022-09-01T14:59:58;23.10;88.70
53800;DHT22;39708;53.210;6.948;2022-09-01T15:02:25;23.10;89.70
53800;DHT22;39708;53.210;6.948;2022-09-01T15:04:52;23.20;88.00
53800;DHT22;39708;53.210;6.948;2022-09-01T15:07:18;23.10;88.80
53800;DHT22;39708;53.210;6.948;2022-09-01T15:09:44;23.00;90.30
53800;DHT22;39708;53.210;6.948;2022-09-01T15:12:09;23.10;87.50
53800;DHT22;39708;53.210;6.948;2022-09-01T15:14:36;23.00;89.80
53800;DHT22;39708;53.210;6.948;2022-09-01T15:17:02;23.00;88.80
53800;DHT22;39708;53.210;6.948;2022-09-01T15:19:28;23.10;88.20
53800;DHT22;39708;53.210;6.948;2022-09-01T15:21:53;23.00;88.10
53800;DHT22;39708;53.210;6.948;2022-09-01T15:24:19;23.00;87.30
53800;DHT22;39708;53.210;6.948;2022-09-01T15:26:45;23.10;88.30
53800;DHT22;39708;53.210;6.948;2022-09-01T15:29:12;23.00;87.30
53800;DHT22;39708;53.210;6.948;2022-09-01T15:31:40;23.00;87.50
53800;DHT22;39708;53.210;6.948;2022-09-01T15:34:06;22.90;87.30
53800;DHT22;39708;53.210;6.948;2022-09-01T15:36:34;22.90;87.70
53800;DHT22;39708;53.210;6.948;2022-09-01T15:39:00;22.80;86.00
53800;DHT22;39708;53.210;6.948;2022-09-01T15:41:29;22.90;88.00
53800;DHT22;39708;53.210;6.948;2022-09-01T15:43:56;22.80;85.30
53800;DHT22;39708;53.210;6.948;2022-09-01T15:46:23;22.70;86.60
53800;DHT22;39708;53.210;6.948;2022-09-01T15:48:56;22.70;87.20
53800;DHT22;39708;53.210;6.948;2022-09-01T15:53:57;22.60;86.70
53800;DHT22;39708;53.210;6.948;2022-09-01T15:56:24;22.50;86.40
53800;DHT22;39708;53.210;6.948;2022-09-01T15:58:50;22.60;87.80
53800;DHT22;39708;53.210;6.948;2022-09-01T16:01:17;22.60;86.00
53800;DHT22;39708;53.210;6.948;2022-09-01T16:03:43;22.60;88.10
53800;DHT22;39708;53.210;6.948;2022-09-01T16:06:09;22.50;87.80
53800;DHT22;39708;53.210;6.948;2022-09-01T16:08:36;22.50;86.20
53800;DHT22;39708;53.210;6.948;2022-09-01T16:11:05;22.50;86.50
53800;DHT22;39708;53.210;6.948;2022-09-01T16:13:35;22.40;86.10
53800;DHT22;39708;53.210;6.948;2022-09-01T16:16:28;22.30;86.60
53800;DHT22;39708;53.210;6.948;2022-09-01T16:24:21;22.20;87.70
53800;DHT22;39708;53.210;6.948;2022-09-01T16:26:48;22.30;89.30
53800;DHT22;39708;53.210;6.948;2022-09-01T16:29:27;22.20;88.40
53800;DHT22;39708;53.210;6.948;2022-09-01T16:31:56;22.20;88.80
53800;DHT22;39708;53.210;6.948;2022-09-01T16:34:22;22.20;88.70
53800;DHT22;39708;53.210;6.948;2022-09-01T16:39:50;22.10;86.60
53800;DHT22;39708;53.210;6.948;2022-09-01T16:42:39;22.10;89.60
53800;DHT22;39708;53.210;6.948;2022-09-01T17:02:05;21.70;88.00
53800;DHT22;39708;53.210;6.948;2022-09-01T17:04:41;21.70;87.80
53800;DHT22;39708;53.210;6.948;2022-09-01T17:07:35;21.70;87.50
53800;DHT22;39708;53.210;6.948;2022-09-01T17:12:47;21.60;88.30
53800;DHT22;39708;53.210;6.948;2022-09-01T17:15:33;21.60;87.30
53800;DHT22;39708;53.210;6.948;2022-09-01T17:18:33;21.50;88.20
53800;DHT22;39708;53.210;6.948;2022-09-01T17:21:09;21.30;87.30